Time;durP1;ratioP1;P1;durP2;ratioP2;P2;SDS_P1;SDS_P2;PMS_P1;PMS_P2;Temp;Humidity;BMP_temperature;BMP_pressure;BME280_temperature;BME280_humidity;BME280_pressure;Samples;Min_cycle;Max_cycle;Signal;HPM_P1;HPM_P2
2021/12/14 00:01:35;;;;;;;138.65;40.10;;;;;;;;;;5031738;28;20013;-87
2021/12/14 00:04:00;;;;;;;;;;;;;;;;;;5013324;28;20032;-87
2021/12/14 00:06:25;;;;;;;74.15;31.27;;;;;;;;;;5012501;28;19913;-87
2021/12/14 00:08:59;;;;;;;89.32;32.65;;;;;;;;;;5012464;28;20060;-87
2021/12/14 00:11:35;;;;;;;146.27;40.53;;;;;;;;;;5030255;28;20042;-87
2021/12/14 00:16:36;;;;;;;108.32;35.33;;;;;;;;;;5031601;28;20029;-87
2021/12/14 00:19:02;;;;;;;87.40;34.53;;;;;;;;;;5030257;28;20032;-87
2021/12/14 00:21:30;;;;;;;107.82;37.50;;;;;;;;;;5030267;28;20014;-86
2021/12/14 00:24:14;;;;;;;87.97;35.05;;;;;;;;;;5030336;28;20112;-87
2021/12/14 00:26:39;;;;;;;124.50;41.10;;;;;;;;;;5030349;28;20033;-87
2021/12/14 00:29:06;;;;;;;101.60;36.83;;;;;;;;;;5030151;28;20017;-87
2021/12/14 00:31:33;;;;;;;119.13;41.80;;;;;;;;;;5012320;28;20067;-87
2021/12/14 00:34:01;;;;;;;137.63;43.88;;;;;;;;;;5030013;28;20018;-86
2021/12/14 00:36:27;;;;;;;121.53;42.05;;;;;;;;;;5030365;28;20049;-87
2021/12/14 00:38:56;;;;;;;123.78;45.90;;;;;;;;;;5030136;28;20504;-86
2021/12/14 00:41:23;;;;;;;111.70;44.15;;;;;;;;;;5032456;28;20435;-87
2021/12/14 00:43:48;;;;;;;137.38;47.28;;;;;;;;;;5029939;28;20049;-87
2021/12/14 00:46:14;;;;;;;153.45;50.92;;;;;;;;;;5029995;28;20460;-87
2021/12/14 00:48:40;;;;;;;124.90;48.47;;;;;;;;;;5030019;28;20036;-87
2021/12/14 00:51:06;;;;;;;135.27;48.72;;;;;;;;;;5029786;28;20021;-87
2021/12/14 00:53:31;;;;;;;139.95;49.70;;;;;;;;;;5030421;28;20124;-86
2021/12/14 00:55:58;;;;;;;139.63;48.20;;;;;;;;;;5012028;28;20108;-87
2021/12/14 00:58:23;;;;;;;138.95;50.63;;;;;;;;;;5012055;28;20037;-87
2021/12/14 01:00:54;;;;;;;114.10;47.35;;;;;;;;;;5012203;28;20025;-87
2021/12/14 01:03:20;;;;;;;154.30;53.37;;;;;;;;;;5012107;28;20477;-87
2021/12/14 01:05:47;;;;;;;161.30;54.92;;;;;;;;;;5013305;28;20036;-86
2021/12/14 01:08:14;;;;;;;161.45;54.88;;;;;;;;;;5030177;28;20026;-87
2021/12/14 01:10:48;;;;;;;114.50;49.40;;;;;;;;;;5029618;28;20025;-87
2021/12/14 01:13:15;;;;;;;152.80;56.05;;;;;;;;;;5011727;28;20417;-87
2021/12/14 01:16:00;;;;;;;174.75;59.85;;;;;;;;;;5030754;28;20026;-87
2021/12/14 01:18:31;;;;;;;151.10;55.63;;;;;;;;;;5011679;28;20088;-87
2021/12/14 01:21:01;;;;;;;154.23;57.90;;;;;;;;;;5011679;28;20034;-87
2021/12/14 01:23:31;;;;;;;156.02;61.95;;;;;;;;;;5011594;28;20114;-87
2021/12/14 01:25:59;;;;;;;111.45;56.13;;;;;;;;;;5029500;28;20095;-87
2021/12/14 01:28:26;;;;;;;141.85;61.00;;;;;;;;;;5011688;28;20045;-87
2021/12/14 01:33:25;;;;;;;154.82;64.60;;;;;;;;;;5029767;28;20103;-87
2021/12/14 01:35:52;;;;;;;139.90;62.35;;;;;;;;;;5011640;28;20087;-87
2021/12/14 01:38:33;;;;;;;160.50;67.20;;;;;;;;;;5011681;28;20017;-87
2021/12/14 01:41:01;;;;;;;158.88;66.30;;;;;;;;;;5029707;28;20021;-87
2021/12/14 01:43:38;;;;;;;155.50;63.15;;;;;;;;;;5029753;28;20178;-87
2021/12/14 01:46:11;;;;;;;143.20;64.22;;;;;;;;;;5011518;28;20024;-86
2021/12/14 01:48:36;;;;;;;160.52;67.70;;;;;;;;;;5011476;28;20088;-87
2021/12/14 01:51:03;;;;;;;167.80;66.43;;;;;;;;;;5011592;28;20370;-87
2021/12/14 01:53:28;;;;;;;174.00;68.30;;;;;;;;;;5011531;28;20124;-86
2021/12/14 01:55:56;;;;;;;160.98;68.93;;;;;;;;;;5029271;28;20108;-87
2021/12/14 01:58:22;;;;;;;156.93;65.63;;;;;;;;;;5012708;28;20057;-87
2021/12/14 02:00:47;;;;;;;161.82;67.95;;;;;;;;;;5029290;28;20076;-87
2021/12/14 02:03:13;;;;;;;170.03;71.70;;;;;;;;;;5029195;28;20043;-87
2021/12/14 02:05:40;;;;;;;176.68;70.00;;;;;;;;;;5014708;28;20148;-87
2021/12/14 02:08:13;;;;;;;154.18;68.57;;;;;;;;;;5032588;28;20033;-87
2021/12/14 02:10:39;;;;;;;169.93;68.57;;;;;;;;;;5032829;28;20013;-87
2021/12/14 02:13:05;;;;;;;162.52;66.47;;;;;;;;;;5014543;28;20065;-87
2021/12/14 02:15:44;;;;;;;167.80;69.68;;;;;;;;;;5014711;28;20049;-87
2021/12/14 02:18:12;;;;;;;158.43;67.10;;;;;;;;;;5014570;28;20429;-87
2021/12/14 02:20:38;;;;;;;142.13;64.10;;;;;;;;;;5014638;28;20113;-86
2021/12/14 02:23:05;;;;;;;189.32;72.30;;;;;;;;;;5014461;28;20386;-87
2021/12/14 02:25:31;;;;;;;172.60;66.10;;;;;;;;;;5033322;28;20017;-86
2021/12/14 02:27:59;;;;;;;149.93;63.92;;;;;;;;;;5032271;28;20359;-87
2021/12/14 02:30:26;;;;;;;190.05;72.38;;;;;;;;;;5014477;28;20025;-87
2021/12/14 02:32:51;;;;;;;182.57;71.43;;;;;;;;;;5014318;28;20524;-87
2021/12/14 02:35:18;;;;;;;162.52;63.88;;;;;;;;;;5014382;28;20045;-87
2021/12/14 02:37:46;;;;;;;187.10;67.32;;;;;;;;;;5014493;28;20799;-86
2021/12/14 02:40:53;;;;;;;165.73;63.75;;;;;;;;;;5032526;28;20030;-86
2021/12/14 02:43:19;;;;;;;144.05;61.28;;;;;;;;;;5032064;28;20971;-87
2021/12/14 02:45:44;;;;;;;140.25;57.97;;;;;;;;;;5032200;28;20048;-87
2021/12/14 02:48:10;;;;;;;114.55;50.88;;;;;;;;;;5014536;28;20029;-87
2021/12/14 02:50:35;;;;;;;161.93;60.35;;;;;;;;;;5033261;28;20026;-87
2021/12/14 02:53:01;;;;;;;107.97;46.88;;;;;;;;;;5031972;28;20029;-87
2021/12/14 02:55:27;;;;;;;102.72;46.55;;;;;;;;;;5013957;28;20026;-87
2021/12/14 02:57:54;;;;;;;114.60;47.65;;;;;;;;;;5031841;28;20033;-87
2021/12/14 03:00:22;;;;;;;86.10;42.40;;;;;;;;;;5032001;28;20025;-87
2021/12/14 03:02:47;;;;;;;101.28;45.03;;;;;;;;;;5031729;28;20109;-87
2021/12/14 03:05:17;;;;;;;92.07;41.38;;;;;;;;;;5014669;28;20033;-87
2021/12/14 03:07:45;;;;;;;71.40;39.95;;;;;;;;;;5013775;28;20163;-87
2021/12/14 03:12:46;;;;;;;93.32;45.38;;;;;;;;;;5031775;28;20635;-87
2021/12/14 03:15:25;;;;;;;155.02;55.38;;;;;;;;;;5013645;28;20501;-87
2021/12/14 03:17:52;;;;;;;135.77;53.85;;;;;;;;;;5032284;28;20032;-87
2021/12/14 03:20:19;;;;;;;124.43;52.97;;;;;;;;;;5032966;28;20022;-87
2021/12/14 03:22:47;;;;;;;133.43;53.85;;;;;;;;;;5031438;28;20048;-87
2021/12/14 03:25:15;;;;;;;180.20;63.03;;;;;;;;;;5013628;28;20021;-87
2021/12/14 03:27:41;;;;;;;190.32;64.78;;;;;;;;;;5031323;28;20428;-87
2021/12/14 03:30:17;;;;;;;163.13;62.38;;;;;;;;;;5013448;28;20029;-87
2021/12/14 03:32:42;;;;;;;132.77;55.95;;;;;;;;;;5031112;28;20197;-87
2021/12/14 03:35:07;;;;;;;169.25;61.78;;;;;;;;;;5031250;28;20025;-87
2021/12/14 03:37:32;;;;;;;153.18;61.97;;;;;;;;;;5030908;28;20397;-87
2021/12/14 03:39:59;;;;;;;179.13;63.08;;;;;;;;;;5031134;28;20079;-87
2021/12/14 03:42:34;;;;;;;144.65;57.72;;;;;;;;;;5031076;28;20820;-87
2021/12/14 03:44:59;;;;;;;151.30;61.63;;;;;;;;;;5032251;28;20053;-86
2021/12/14 03:47:27;;;;;;;211.63;69.03;;;;;;;;;;5013708;28;20126;-87
2021/12/14 03:49:57;;;;;;;143.98;60.13;;;;;;;;;;5012952;28;20057;-87
2021/12/14 03:52:25;;;;;;;182.65;65.97;;;;;;;;;;5030700;28;20033;-86
2021/12/14 03:54:51;;;;;;;211.18;69.40;;;;;;;;;;5030871;28;20116;-87
2021/12/14 03:57:16;;;;;;;155.82;60.75;;;;;;;;;;5030753;28;20116;-86
2021/12/14 03:59:43;;;;;;;187.73;64.53;;;;;;;;;;5030723;28;20489;-87
2021/12/14 04:02:10;;;;;;;131.20;53.42;;;;;;;;;;5030720;28;20436;-87
2021/12/14 04:04:39;;;;;;;133.85;54.65;;;;;;;;;;5030887;28;20017;-87
2021/12/14 04:07:07;;;;;;;151.32;58.20;;;;;;;;;;5030691;28;20022;-87
2021/12/14 04:09:34;;;;;;;144.48;55.65;;;;;;;;;;5012984;28;20036;-87
2021/12/14 04:11:59;;;;;;;164.55;58.97;;;;;;;;;;5030345;28;20077;-87
2021/12/14 04:14:29;;;;;;;139.75;57.53;;;;;;;;;;5030700;28;20056;-87
2021/12/14 04:16:55;;;;;;;154.80;59.65;;;;;;;;;;5013840;28;20029;-87
2021/12/14 04:19:23;;;;;;;167.90;59.40;;;;;;;;;;5012594;28;20027;-87
2021/12/14 04:21:49;;;;;;;175.82;61.42;;;;;;;;;;5030213;28;20493;-87
2021/12/14 04:24:17;;;;;;;139.48;55.40;;;;;;;;;;5030388;28;20049;-87
2021/12/14 04:26:45;;;;;;;201.65;66.28;;;;;;;;;;5029882;28;20033;-87
2021/12/14 04:29:12;;;;;;;205.98;66.38;;;;;;;;;;5012627;28;20021;-87
2021/12/14 04:31:38;;;;;;;208.02;62.53;;;;;;;;;;5030255;28;20021;-87
2021/12/14 04:34:03;;;;;;;216.40;67.78;;;;;;;;;;5012192;28;20037;-87
2021/12/14 04:36:30;;;;;;;256.13;72.85;;;;;;;;;;5030352;28;20022;-87
2021/12/14 04:39:21;;;;;;;199.93;62.25;;;;;;;;;;5029728;28;20165;-87
2021/12/14 04:53:07;;;;;;;164.20;57.60;;;;;;;;;;5030315;28;20036;-87
2021/12/14 04:55:32;;;;;;;222.48;63.38;;;;;;;;;;5012105;28;20029;-87
2021/12/14 04:57:57;;;;;;;211.23;63.37;;;;;;;;;;5030355;28;20537;-87
2021/12/14 05:00:26;;;;;;;167.00;55.63;;;;;;;;;;5029843;28;20265;-87
2021/12/14 05:02:52;;;;;;;182.13;55.13;;;;;;;;;;5026147;28;20033;-87
2021/12/14 05:05:19;;;;;;;133.32;48.65;;;;;;;;;;5009813;28;20032;-87
2021/12/14 05:10:56;;;;;;;233.20;59.78;;;;;;;;;;4959719;28;20113;-87
2021/12/14 05:13:25;;;;;;;224.07;59.65;;;;;;;;;;5028544;28;20413;-87
2021/12/14 05:15:51;;;;;;;203.20;58.45;;;;;;;;;;5028304;28;20026;-87
2021/12/14 05:18:16;;;;;;;254.80;62.75;;;;;;;;;;5027329;28;20381;-87
2021/12/14 05:20:43;;;;;;;215.95;58.88;;;;;;;;;;5027758;28;20036;-87
2021/12/14 05:23:08;;;;;;;212.13;60.45;;;;;;;;;;5009905;28;20471;-87
2021/12/14 05:25:33;;;;;;;195.70;56.35;;;;;;;;;;5028216;28;20025;-87
2021/12/14 05:28:02;;;;;;;210.23;58.13;;;;;;;;;;5010008;28;20032;-87
2021/12/14 05:30:30;;;;;;;158.13;52.60;;;;;;;;;;5027481;28;20018;-86
2021/12/14 05:32:58;;;;;;;184.52;54.88;;;;;;;;;;5031064;28;20546;-87
2021/12/14 05:35:23;;;;;;;240.65;60.95;;;;;;;;;;5028240;28;20087;-87
2021/12/14 05:37:52;;;;;;;273.33;65.53;;;;;;;;;;5029095;28;20022;-87
2021/12/14 05:40:56;;;;;;;244.57;60.20;;;;;;;;;;5013783;28;20440;-87
2021/12/14 05:43:13;;;;;;;236.43;59.72;;;;;;;;;;5029129;28;20063;-87
2021/12/14 05:45:43;;;;;;;276.10;63.67;;;;;;;;;;5031536;28;20124;-87
2021/12/14 05:48:09;;;;;;;250.88;60.25;;;;;;;;;;5031529;28;20025;-87
2021/12/14 05:50:40;;;;;;;215.40;59.92;;;;;;;;;;5013399;28;20041;-86
2021/12/14 05:53:06;;;;;;;242.15;57.63;;;;;;;;;;5031411;28;20067;-86
2021/12/14 05:55:34;;;;;;;176.85;53.35;;;;;;;;;;5015111;28;20496;-86
2021/12/14 05:58:00;;;;;;;237.55;53.70;;;;;;;;;;5013267;28;20583;-87
2021/12/14 06:00:26;;;;;;;183.10;50.85;;;;;;;;;;5013066;28;20021;-87
2021/12/14 06:02:52;;;;;;;187.05;50.38;;;;;;;;;;5013254;28;20034;-86
2021/12/14 06:05:18;;;;;;;169.98;45.80;;;;;;;;;;5031610;28;20054;-87
2021/12/14 06:07:44;;;;;;;177.80;45.30;;;;;;;;;;5013991;28;20021;-87
2021/12/14 06:10:10;;;;;;;82.45;31.58;;;;;;;;;;5031327;28;20504;-87
2021/12/14 06:12:36;;;;;;;93.60;34.03;;;;;;;;;;5013809;28;20793;-87
2021/12/14 06:15:02;;;;;;;117.10;34.70;;;;;;;;;;5014153;28;20111;-87
2021/12/14 06:17:30;;;;;;;84.88;33.53;;;;;;;;;;5014707;28;20151;-87
2021/12/14 06:20:00;;;;;;;128.38;38.95;;;;;;;;;;5004754;28;20085;-87
2021/12/14 06:22:26;;;;;;;113.50;36.72;;;;;;;;;;5005132;28;20033;-87
2021/12/14 06:25:03;;;;;;;119.80;38.58;;;;;;;;;;5030843;28;20036;-87
2021/12/14 06:27:30;;;;;;;132.48;37.05;;;;;;;;;;5014909;28;20021;-87
2021/12/14 06:29:57;;;;;;;113.20;36.00;;;;;;;;;;5022962;28;20477;-87
2021/12/14 06:32:25;;;;;;;90.10;33.25;;;;;;;;;;4992841;28;20053;-87
2021/12/14 06:34:52;;;;;;;75.10;27.50;;;;;;;;;;4995464;28;20438;-87
2021/12/14 06:40:10;;;;;;;50.30;19.88;;;;;;;;;;5024197;28;20029;-87
2021/12/14 06:42:37;;;;;;;24.40;13.23;;;;;;;;;;5006126;28;20113;-87
2021/12/14 06:45:04;;;;;;;21.15;8.73;;;;;;;;;;5030773;28;20227;-87
2021/12/14 06:47:30;;;;;;;19.60;8.48;;;;;;;;;;5026509;28;20096;-87
2021/12/14 06:49:58;;;;;;;14.82;6.93;;;;;;;;;;5009989;28;20029;-87
2021/12/14 06:52:23;;;;;;;8.88;4.40;;;;;;;;;;5003846;28;20040;-87
2021/12/14 06:54:48;;;;;;;16.75;5.97;;;;;;;;;;5031810;28;20385;-87
2021/12/14 06:57:13;;;;;;;6.70;4.35;;;;;;;;;;5030058;28;20646;-87
2021/12/14 06:59:39;;;;;;;9.93;4.97;;;;;;;;;;5030326;28;20025;-86
2021/12/14 07:02:07;;;;;;;6.70;4.28;;;;;;;;;;5012291;28;20037;-86
2021/12/14 07:04:34;;;;;;;9.68;5.10;;;;;;;;;;5017387;28;20121;-87
2021/12/14 07:07:01;;;;;;;9.65;4.65;;;;;;;;;;5008212;28;20029;-86
2021/12/14 07:09:28;;;;;;;10.98;5.03;;;;;;;;;;5012003;28;20045;-87
2021/12/14 07:12:02;;;;;;;10.13;4.55;;;;;;;;;;5012768;28;20057;-86
2021/12/14 07:14:28;;;;;;;10.82;4.95;;;;;;;;;;5012389;28;20087;-86
2021/12/14 07:16:57;;;;;;;7.70;4.25;;;;;;;;;;5011457;28;20033;-86
2021/12/14 07:19:38;;;;;;;12.82;5.32;;;;;;;;;;4992142;28;20128;-87
2021/12/14 07:22:03;;;;;;;8.05;4.40;;;;;;;;;;5009974;28;20036;-87
2021/12/14 07:24:31;;;;;;;8.43;3.90;;;;;;;;;;4992090;28;20025;-87
2021/12/14 07:27:11;;;;;;;10.30;4.82;;;;;;;;;;5009749;28;20109;-87
2021/12/14 07:29:37;;;;;;;13.00;4.03;;;;;;;;;;4996447;28;20009;-87
2021/12/14 07:32:02;;;;;;;7.32;3.88;;;;;;;;;;5022954;28;20056;-87
2021/12/14 07:34:27;;;;;;;7.60;3.60;;;;;;;;;;4991581;28;20100;-87
2021/12/14 07:36:53;;;;;;;12.03;4.97;;;;;;;;;;5024910;28;20057;-87
2021/12/14 07:39:19;;;;;;;15.68;6.18;;;;;;;;;;5008766;28;20272;-87
2021/12/14 07:41:46;;;;;;;10.98;4.70;;;;;;;;;;5009453;28;20028;-87
2021/12/14 07:44:14;;;;;;;12.27;5.22;;;;;;;;;;5009702;28;20026;-87
2021/12/14 07:46:48;;;;;;;12.73;5.03;;;;;;;;;;5005264;28;20024;-87
2021/12/14 07:49:27;;;;;;;15.60;7.00;;;;;;;;;;4995084;28;20441;-86
2021/12/14 07:51:58;;;;;;;14.93;6.70;;;;;;;;;;5022379;28;20101;-87
2021/12/14 07:54:26;;;;;;;18.33;8.05;;;;;;;;;;5002735;28;20033;-87
2021/12/14 07:56:52;;;;;;;13.60;6.68;;;;;;;;;;5013762;28;20470;-87
2021/12/14 07:59:38;;;;;;;18.10;6.68;;;;;;;;;;5010876;28;20013;-86
2021/12/14 08:02:14;;;;;;;26.75;10.75;;;;;;;;;;5025778;28;20562;-87
2021/12/14 08:04:41;;;;;;;19.85;9.35;;;;;;;;;;5010757;28;20032;-87
2021/12/14 08:07:07;;;;;;;8.60;5.60;;;;;;;;;;4993876;28;20032;-87
2021/12/14 08:09:46;;;;;;;13.18;6.18;;;;;;;;;;4996218;28;20025;-87
2021/12/14 08:12:11;;;;;;;17.65;6.72;;;;;;;;;;5010695;28;20061;-87
2021/12/14 08:14:37;;;;;;;22.05;7.15;;;;;;;;;;4997416;28;20389;-87
2021/12/14 08:17:08;;;;;;;26.15;8.30;;;;;;;;;;5024599;28;20022;-87
2021/12/14 08:19:33;;;;;;;14.13;6.22;;;;;;;;;;5014005;28;20009;-87
2021/12/14 08:22:05;;;;;;;16.03;6.20;;;;;;;;;;5020632;28;20034;-87
2021/12/14 08:24:30;;;;;;;17.85;6.85;;;;;;;;;;4991070;28;20265;-87
2021/12/14 08:26:57;;;;;;;16.70;6.40;;;;;;;;;;4991134;28;20026;-87
2021/12/14 08:29:27;;;;;;;14.40;7.00;;;;;;;;;;5028057;28;20021;-87
2021/12/14 08:31:55;;;;;;;11.48;6.82;;;;;;;;;;5030327;28;20100;-87
2021/12/14 08:34:27;;;;;;;17.33;7.13;;;;;;;;;;4999546;28;20026;-87
2021/12/14 08:36:53;;;;;;;19.63;8.13;;;;;;;;;;5008493;28;20022;-87
2021/12/14 08:39:23;;;;;;;13.00;6.22;;;;;;;;;;4990531;28;20026;-87
2021/12/14 08:41:51;;;;;;;15.48;7.75;;;;;;;;;;4997011;28;20022;-87
2021/12/14 08:44:23;;;;;;;16.52;6.45;;;;;;;;;;5010291;28;20038;-86
2021/12/14 08:46:51;;;;;;;11.68;7.07;;;;;;;;;;5013471;28;20083;-87
2021/12/14 08:49:19;;;;;;;11.93;6.03;;;;;;;;;;5024607;28;20018;-87
2021/12/14 08:51:45;;;;;;;14.70;5.13;;;;;;;;;;5008810;28;20554;-87
2021/12/14 08:54:12;;;;;;;10.63;5.80;;;;;;;;;;5002183;28;20040;-87
2021/12/14 08:56:43;;;;;;;9.40;5.05;;;;;;;;;;4991345;28;20022;-87
2021/12/14 08:59:09;;;;;;;13.37;5.87;;;;;;;;;;5043448;28;20045;-87
2021/12/14 09:01:35;;;;;;;11.52;6.03;;;;;;;;;;5005597;28;20025;-87
2021/12/14 09:04:03;;;;;;;15.63;6.85;;;;;;;;;;5024210;28;20029;-87
2021/12/14 09:06:30;;;;;;;14.95;7.00;;;;;;;;;;5028204;28;20026;-87
2021/12/14 09:08:59;;;;;;;14.00;7.28;;;;;;;;;;5010064;28;20025;-87
2021/12/14 09:11:26;;;;;;;19.60;8.32;;;;;;;;;;5006524;28;20101;-87
2021/12/14 09:13:52;;;;;;;15.60;7.30;;;;;;;;;;5012803;28;20500;-87
2021/12/14 09:16:26;;;;;;;14.48;8.82;;;;;;;;;;5005054;28;20025;-87
2021/12/14 09:19:02;;;;;;;19.23;9.80;;;;;;;;;;5013928;28;20094;-87
2021/12/14 09:21:36;;;;;;;12.57;6.88;;;;;;;;;;4994819;28;20021;-87
2021/12/14 09:24:05;;;;;;;13.93;7.40;;;;;;;;;;5012645;28;20083;-87
2021/12/14 09:26:33;;;;;;;18.23;7.07;;;;;;;;;;4994908;28;20033;-86
2021/12/14 09:28:58;;;;;;;12.60;5.25;;;;;;;;;;4994446;28;20043;-86
2021/12/14 09:31:26;;;;;;;12.27;5.32;;;;;;;;;;5013772;28;20086;-87
2021/12/14 09:33:52;;;;;;;9.20;5.13;;;;;;;;;;5031332;28;20079;-87
2021/12/14 09:36:18;;;;;;;14.02;5.90;;;;;;;;;;5020917;28;20053;-87
2021/12/14 09:38:47;;;;;;;8.77;5.22;;;;;;;;;;5031372;28;20032;-87
2021/12/14 09:41:15;;;;;;;12.25;5.28;;;;;;;;;;5031327;28;20025;-87
2021/12/14 09:43:41;;;;;;;11.45;5.72;;;;;;;;;;5031445;28;20788;-87
2021/12/14 09:46:08;;;;;;;14.43;5.80;;;;;;;;;;5013795;28;20029;-86
2021/12/14 09:48:38;;;;;;;12.48;5.65;;;;;;;;;;5013609;28;20032;-87
2021/12/14 09:51:10;;;;;;;9.25;5.28;;;;;;;;;;5013636;28;20026;-87
2021/12/14 09:53:35;;;;;;;;;;;;;;;;;;5030515;28;20031;-87
2021/12/14 09:56:00;;;;;;;13.60;4.65;;;;;;;;;;5015179;28;19909;-87
2021/12/14 09:58:27;;;;;;;11.00;4.95;;;;;;;;;;5014064;28;20032;-87
2021/12/14 10:00:58;;;;;;;15.07;5.75;;;;;;;;;;5030815;28;20084;-87
2021/12/14 10:03:24;;;;;;;8.18;4.78;;;;;;;;;;5031542;28;20053;-87
2021/12/14 10:05:58;;;;;;;7.82;4.97;;;;;;;;;;5031243;28;20413;-86
2021/12/14 10:08:26;;;;;;;9.60;4.65;;;;;;;;;;5031194;28;20029;-87
2021/12/14 10:11:02;;;;;;;10.10;4.32;;;;;;;;;;5031195;28;20021;-87
2021/12/14 10:13:28;;;;;;;6.95;5.10;;;;;;;;;;4993278;28;20061;-87
2021/12/14 10:15:55;;;;;;;11.20;5.10;;;;;;;;;;5019318;28;20404;-87
2021/12/14 10:18:24;;;;;;;10.77;5.10;;;;;;;;;;5012868;28;20033;-87
2021/12/14 10:20:51;;;;;;;14.82;4.80;;;;;;;;;;5031136;28;20032;-87
2021/12/14 10:23:17;;;;;;;13.50;5.72;;;;;;;;;;5030786;28;20505;-87
2021/12/14 10:25:43;;;;;;;10.00;5.65;;;;;;;;;;5030021;28;20045;-87
2021/12/14 10:28:09;;;;;;;12.93;6.68;;;;;;;;;;5013078;28;20385;-87
2021/12/14 10:30:37;;;;;;;12.00;5.55;;;;;;;;;;5030451;28;20022;-87
2021/12/14 10:33:03;;;;;;;12.55;6.35;;;;;;;;;;5030606;28;20466;-87
2021/12/14 10:35:35;;;;;;;11.98;6.68;;;;;;;;;;5013645;28;20037;-87
2021/12/14 10:38:13;;;;;;;;;;;;;;;;;;5031598;28;20029;-87
2021/12/14 10:43:24;;;;;;;10.13;5.97;;;;;;;;;;5030043;28;20049;-87
2021/12/14 10:45:49;;;;;;;9.00;5.57;;;;;;;;;;5030220;28;20029;-87
2021/12/14 10:48:14;;;;;;;12.18;5.65;;;;;;;;;;5030124;28;20044;-87
2021/12/14 10:50:42;;;;;;;15.40;5.57;;;;;;;;;;5011953;28;20025;-87
2021/12/14 10:53:08;;;;;;;13.52;5.90;;;;;;;;;;5012189;28;20028;-86
2021/12/14 10:55:36;;;;;;;9.75;5.00;;;;;;;;;;5030350;28;20033;-87
2021/12/14 10:58:03;;;;;;;13.43;5.45;;;;;;;;;;5031624;28;20028;-87
2021/12/14 11:00:32;;;;;;;14.02;5.57;;;;;;;;;;5030223;28;20716;-87
2021/12/14 11:03:08;;;;;;;11.32;5.40;;;;;;;;;;5029772;28;20029;-87
2021/12/14 11:05:34;;;;;;;11.77;5.35;;;;;;;;;;4997089;28;20028;-87
2021/12/14 11:08:00;;;;;;;8.13;4.78;;;;;;;;;;5029488;28;20025;-86
2021/12/14 11:10:29;;;;;;;7.82;4.00;;;;;;;;;;5012185;28;20112;-87
2021/12/14 11:13:00;;;;;;;6.47;4.05;;;;;;;;;;5030005;28;20061;-87
2021/12/14 11:15:28;;;;;;;10.73;4.15;;;;;;;;;;5012166;28;20032;-87
2021/12/14 11:18:13;;;;;;;10.63;4.60;;;;;;;;;;5029239;28;20033;-87
2021/12/14 11:20:57;;;;;;;6.22;4.30;;;;;;;;;;5011869;28;20067;-86
2021/12/14 11:23:24;;;;;;;8.88;4.20;;;;;;;;;;5011352;28;20040;-87
2021/12/14 11:25:49;;;;;;;17.25;5.68;;;;;;;;;;5029531;28;20757;-87
2021/12/14 11:28:18;;;;;;;7.30;4.22;;;;;;;;;;5029519;28;20017;-86
2021/12/14 11:31:05;;;;;;;12.13;4.18;;;;;;;;;;5029032;28;20488;-87
2021/12/14 11:33:35;;;;;;;8.30;3.97;;;;;;;;;;5013754;28;20025;-87
2021/12/14 11:36:05;;;;;;;10.82;4.00;;;;;;;;;;5029701;28;20112;-87
2021/12/14 11:38:45;;;;;;;7.32;4.68;;;;;;;;;;5029299;28;20751;-87
2021/12/14 11:41:22;;;;;;;17.00;4.47;;;;;;;;;;5011822;28;20358;-87
2021/12/14 11:43:49;;;;;;;8.68;3.80;;;;;;;;;;5011889;28;20067;-87
2021/12/14 11:46:14;;;;;;;8.45;4.32;;;;;;;;;;5029494;28;20030;-87
2021/12/14 11:48:40;;;;;;;6.00;4.57;;;;;;;;;;5030533;28;20095;-87
2021/12/14 11:51:06;;;;;;;6.85;4.07;;;;;;;;;;5028874;28;20026;-87
2021/12/14 11:53:32;;;;;;;9.88;4.22;;;;;;;;;;5027681;28;20782;-87
2021/12/14 11:55:59;;;;;;;11.57;4.20;;;;;;;;;;5027948;28;20022;-86
2021/12/14 11:58:30;;;;;;;7.75;3.40;;;;;;;;;;5028856;28;20389;-87
2021/12/14 12:00:55;;;;;;;12.10;4.37;;;;;;;;;;5027205;28;20021;-87
2021/12/14 12:03:32;;;;;;;7.53;3.08;;;;;;;;;;5027854;28;20311;-86
2021/12/14 12:06:14;;;;;;;9.13;3.80;;;;;;;;;;5010824;28;20041;-87
2021/12/14 12:11:35;;;;;;;6.40;3.42;;;;;;;;;;5012698;28;20032;-87
2021/12/14 12:14:00;;;;;;;11.70;4.25;;;;;;;;;;5027401;28;20060;-87
2021/12/14 12:16:27;;;;;;;8.48;3.50;;;;;;;;;;5029831;28;20021;-87
2021/12/14 12:19:02;;;;;;;8.13;3.38;;;;;;;;;;5029075;28;20744;-87
2021/12/14 12:21:29;;;;;;;5.15;2.30;;;;;;;;;;5027380;28;20544;-87
2021/12/14 12:23:54;;;;;;;5.63;2.78;;;;;;;;;;5028436;28;20048;-87
2021/12/14 12:26:20;;;;;;;7.78;3.33;;;;;;;;;;5010549;28;20021;-87
2021/12/14 12:28:47;;;;;;;7.70;2.40;;;;;;;;;;5028387;28;20036;-87
2021/12/14 12:31:16;;;;;;;6.72;2.67;;;;;;;;;;5028565;28;20018;-87
2021/12/14 12:33:42;;;;;;;9.45;2.33;;;;;;;;;;5010289;28;20363;-87
2021/12/14 12:36:10;;;;;;;6.55;2.50;;;;;;;;;;5028509;28;20021;-87
2021/12/14 12:38:35;;;;;;;11.25;3.40;;;;;;;;;;5028459;28;20034;-87
2021/12/14 12:41:01;;;;;;;6.57;2.27;;;;;;;;;;5028506;28;20060;-87
2021/12/14 12:43:32;;;;;;;6.50;2.90;;;;;;;;;;5010045;28;20308;-86
2021/12/14 12:46:03;;;;;;;7.03;2.47;;;;;;;;;;5010679;28;20083;-87
2021/12/14 12:48:47;;;;;;;9.45;2.72;;;;;;;;;;5009535;28;20029;-87
2021/12/14 12:51:31;;;;;;;7.32;2.65;;;;;;;;;;5010590;28;20029;-87
2021/12/14 12:54:15;;;;;;;7.43;2.13;;;;;;;;;;5029103;28;20032;-86
2021/12/14 12:56:42;;;;;;;5.85;2.40;;;;;;;;;;5028578;28;20037;-86
2021/12/14 12:59:08;;;;;;;4.47;2.53;;;;;;;;;;5028045;28;20025;-87
2021/12/14 13:01:34;;;;;;;6.97;2.55;;;;;;;;;;5009697;28;20136;-87
2021/12/14 13:03:59;;;;;;;9.85;2.33;;;;;;;;;;5026413;28;20120;-87
2021/12/14 13:06:24;;;;;;;6.57;2.65;;;;;;;;;;5028081;28;20031;-87
2021/12/14 13:08:52;;;;;;;8.88;2.80;;;;;;;;;;5009648;28;20022;-86
2021/12/14 13:11:36;;;;;;;5.15;2.53;;;;;;;;;;5025722;28;20105;-86
2021/12/14 13:14:12;;;;;;;9.52;3.25;;;;;;;;;;5028366;28;20060;-87
2021/12/14 13:16:41;;;;;;;6.45;2.85;;;;;;;;;;5027843;28;20021;-86
2021/12/14 13:19:18;;;;;;;6.30;3.00;;;;;;;;;;5027970;28;20091;-87
2021/12/14 13:21:53;;;;;;;8.35;2.70;;;;;;;;;;5027798;28;20025;-87
2021/12/14 13:24:25;;;;;;;9.95;3.10;;;;;;;;;;5026713;28;20120;-86
2021/12/14 13:26:59;;;;;;;6.47;2.80;;;;;;;;;;5027675;28;20033;-86
2021/12/14 13:29:32;;;;;;;7.07;2.85;;;;;;;;;;5027863;28;20751;-86
2021/12/14 13:32:00;;;;;;;8.70;3.22;;;;;;;;;;5009662;28;20570;-86
2021/12/14 13:34:40;;;;;;;5.65;2.70;;;;;;;;;;5027962;28;20057;-87
2021/12/14 13:37:07;;;;;;;7.57;2.40;;;;;;;;;;5027418;28;20037;-86
2021/12/14 13:39:34;;;;;;;5.65;2.50;;;;;;;;;;5027653;28;20116;-87
2021/12/14 13:41:59;;;;;;;9.88;2.78;;;;;;;;;;5009658;28;20033;-87
2021/12/14 13:44:29;;;;;;;3.47;2.30;;;;;;;;;;5009351;28;20101;-87
2021/12/14 13:46:55;;;;;;;7.38;3.75;;;;;;;;;;5028389;28;20268;-86
2021/12/14 13:49:20;;;;;;;10.02;3.53;;;;;;;;;;5009724;28;20497;-86
2021/12/14 13:51:45;;;;;;;7.18;3.75;;;;;;;;;;5027687;28;20477;-86
2021/12/14 13:54:10;;;;;;;6.63;3.60;;;;;;;;;;5028353;28;20067;-87
2021/12/14 13:56:40;;;;;;;9.77;4.05;;;;;;;;;;5009423;28;20033;-87
2021/12/14 13:59:06;;;;;;;11.30;4.43;;;;;;;;;;5040347;28;20067;-87
2021/12/14 14:01:44;;;;;;;6.60;4.35;;;;;;;;;;5029214;28;20381;-87
2021/12/14 14:04:11;;;;;;;11.77;5.00;;;;;;;;;;5030253;28;20092;-87
2021/12/14 14:06:37;;;;;;;7.72;4.03;;;;;;;;;;5013439;28;20036;-86
2021/12/14 14:09:08;;;;;;;9.68;3.90;;;;;;;;;;5029304;28;20022;-87
2021/12/14 14:11:42;;;;;;;7.38;4.45;;;;;;;;;;5030654;28;20013;-86
2021/12/14 14:14:16;;;;;;;8.70;4.63;;;;;;;;;;5031444;28;20484;-87
2021/12/14 14:16:43;;;;;;;9.40;4.05;;;;;;;;;;5030663;28;20033;-86
2021/12/14 14:19:14;;;;;;;10.90;5.50;;;;;;;;;;5030359;28;20028;-87
2021/12/14 14:21:39;;;;;;;8.02;4.30;;;;;;;;;;5030949;28;20026;-87
2021/12/14 14:24:15;;;;;;;10.13;4.60;;;;;;;;;;5031323;28;20452;-87
2021/12/14 14:26:41;;;;;;;8.63;4.72;;;;;;;;;;5031201;28;20037;-87
2021/12/14 14:29:11;;;;;;;6.10;3.92;;;;;;;;;;5030505;28;20021;-87
2021/12/14 14:31:46;;;;;;;7.05;3.78;;;;;;;;;;5030580;28;20017;-87
2021/12/14 14:34:19;;;;;;;10.48;4.68;;;;;;;;;;5031333;28;20080;-86
2021/12/14 14:36:45;;;;;;;7.68;4.38;;;;;;;;;;5030997;28;20063;-87
2021/12/14 14:39:15;;;;;;;9.57;3.80;;;;;;;;;;5030856;28;20497;-87
2021/12/14 14:41:45;;;;;;;14.00;4.65;;;;;;;;;;5012763;28;20389;-87
2021/12/14 14:44:13;;;;;;;9.13;4.40;;;;;;;;;;5030689;28;20029;-87
2021/12/14 14:46:38;;;;;;;12.38;5.38;;;;;;;;;;5030634;28;20112;-87
2021/12/14 14:49:07;;;;;;;9.38;4.47;;;;;;;;;;5012560;28;20458;-86
2021/12/14 14:51:47;;;;;;;11.38;5.45;;;;;;;;;;5030422;28;20044;-87
2021/12/14 14:54:30;;;;;;;14.73;6.18;;;;;;;;;;5031089;28;20535;-86
2021/12/14 14:56:55;;;;;;;19.00;6.38;;;;;;;;;;5013215;28;20025;-87
2021/12/14 14:59:20;;;;;;;9.27;5.13;;;;;;;;;;5030307;28;20032;-87
2021/12/14 15:01:46;;;;;;;10.90;4.60;;;;;;;;;;5012508;28;20107;-86
2021/12/14 15:04:11;;;;;;;11.10;5.35;;;;;;;;;;5012151;28;20069;-86